Time;durP1;ratioP1;P1;durP2;ratioP2;P2;SDS_P1;SDS_P2;PMS_P1;PMS_P2;Temp;Humidity;BMP_temperature;BMP_pressure;BME280_temperature;BME280_humidity;BME280_pressure;Samples;Min_cycle;Max_cycle;Signal;HPM_P1;HPM_P2
2022/09/18 00:01:17;;;;;;;1.02;0.60;;;23.70;53.70;;;;;;5043085;28;20040;-51
2022/09/18 00:03:43;;;;;;;1.00;0.50;;;23.70;53.70;;;;;;5032281;28;20064;-49
2022/09/18 00:06:13;;;;;;;1.88;0.80;;;23.70;53.70;;;;;;5046379;28;20060;-47
2022/09/18 00:08:39;;;;;;;0.90;0.57;;;23.70;53.70;;;;;;5050869;28;20029;-47
2022/09/18 00:11:08;;;;;;;1.77;0.52;;;23.70;53.70;;;;;;5052240;28;20452;-50
2022/09/18 00:13:35;;;;;;;1.80;0.60;;;23.70;53.60;;;;;;5050785;28;20398;-46
2022/09/18 00:16:01;;;;;;;1.27;0.70;;;23.70;53.60;;;;;;5052981;28;20378;-46
2022/09/18 00:18:26;;;;;;;0.47;0.40;;;23.60;53.60;;;;;;5051746;28;20033;-56
2022/09/18 00:20:52;;;;;;;1.00;0.40;;;23.60;53.60;;;;;;5052368;28;20052;-46
2022/09/18 00:23:17;;;;;;;0.73;0.50;;;23.60;53.60;;;;;;5052705;28;20466;-46
2022/09/18 00:25:43;;;;;;;0.85;0.40;;;23.60;53.50;;;;;;5045048;28;20141;-47
2022/09/18 00:28:09;;;;;;;1.17;0.60;;;23.60;53.50;;;;;;5045556;28;20446;-48
2022/09/18 00:30:34;;;;;;;1.00;0.55;;;23.60;53.60;;;;;;5050211;28;20087;-47
2022/09/18 00:33:00;;;;;;;2.08;0.65;;;23.60;53.50;;;;;;5050374;28;20454;-47
2022/09/18 00:35:25;;;;;;;1.10;0.50;;;23.60;53.50;;;;;;5051366;28;20029;-56
2022/09/18 00:37:51;;;;;;;1.00;0.50;;;23.60;53.40;;;;;;5051710;28;20179;-48
2022/09/18 00:40:17;;;;;;;2.20;0.77;;;23.60;53.40;;;;;;5051535;28;20037;-46
2022/09/18 00:42:43;;;;;;;3.58;1.88;;;23.60;53.40;;;;;;5051419;28;20041;-46
2022/09/18 00:45:11;;;;;;;1.20;0.85;;;23.60;53.50;;;;;;5052383;28;20048;-48
2022/09/18 00:47:40;;;;;;;1.15;0.40;;;23.60;53.50;;;;;;5044720;28;20117;-49
2022/09/18 00:50:20;;;;;;;1.77;1.30;;;23.60;53.50;;;;;;5032520;28;20029;-51
2022/09/18 00:52:56;;;;;;;2.28;0.70;;;23.60;53.40;;;;;;5031378;28;20033;-46
2022/09/18 00:55:29;;;;;;;1.60;0.55;;;23.60;53.40;;;;;;5032367;28;20083;-50
2022/09/18 00:57:58;;;;;;;1.40;0.70;;;23.60;53.40;;;;;;5032681;28;20029;-52
2022/09/18 01:00:24;;;;;;;3.80;0.52;;;23.60;53.40;;;;;;5032090;28;20109;-54
2022/09/18 01:02:51;;;;;;;2.33;0.60;;;23.60;53.30;;;;;;5031495;28;20075;-48
2022/09/18 01:05:45;;;;;;;1.55;0.55;;;23.60;53.40;;;;;;5037767;28;20153;-50
2022/09/18 01:08:24;;;;;;;0.40;0.35;;;23.60;53.30;;;;;;5034241;28;20378;-46
2022/09/18 01:11:14;;;;;;;1.55;0.50;;;23.60;53.30;;;;;;5050790;28;20052;-51
2022/09/18 01:14:03;;;;;;;0.80;0.70;;;23.60;53.30;;;;;;5048191;28;20107;-49
2022/09/18 01:16:55;;;;;;;0.98;0.35;;;23.60;53.30;;;;;;5051107;28;20029;-51
2022/09/18 01:20:05;;;;;;;1.25;0.60;;;23.60;53.30;;;;;;5051775;28;20029;-46
2022/09/18 01:23:00;;;;;;;0.77;0.40;;;23.60;53.30;;;;;;5051028;28;20075;-46
2022/09/18 01:25:49;;;;;;;1.05;0.50;;;23.60;53.30;;;;;;5051171;28;20057;-54
2022/09/18 01:28:41;;;;;;;1.35;0.50;;;23.60;53.20;;;;;;5051907;28;20032;-48
2022/09/18 01:31:28;;;;;;;1.77;0.60;;;23.60;53.20;;;;;;5046521;28;20477;-46
2022/09/18 01:34:04;;;;;;;1.38;0.40;;;23.60;53.20;;;;;;5051212;28;20440;-47
2022/09/18 01:36:34;;;;;;;1.33;0.52;;;23.60;53.20;;;;;;5048861;28;20037;-49
2022/09/18 01:39:19;;;;;;;0.52;0.50;;;23.60;53.10;;;;;;5051246;28;20115;-48
2022/09/18 01:41:50;;;;;;;0.73;0.32;;;23.60;53.20;;;;;;5050617;28;20033;-47
2022/09/18 01:44:20;;;;;;;1.23;0.57;;;23.60;53.10;;;;;;5042497;28;20040;-47
2022/09/18 01:46:48;;;;;;;0.75;0.40;;;23.60;53.10;;;;;;5030995;28;20053;-47
2022/09/18 01:49:22;;;;;;;1.05;0.50;;;23.60;53.10;;;;;;5043160;28;20024;-47
2022/09/18 01:52:06;;;;;;;1.23;0.40;;;23.60;53.00;;;;;;5032839;28;20514;-48
2022/09/18 01:54:38;;;;;;;1.95;1.10;;;23.60;53.00;;;;;;5050581;28;20029;-47
2022/09/18 01:57:15;;;;;;;0.70;0.30;;;23.50;53.00;;;;;;5051736;28;20037;-47
2022/09/18 01:59:48;;;;;;;1.83;0.60;;;23.50;53.00;;;;;;5047507;28;20478;-46
2022/09/18 02:02:28;;;;;;;0.98;0.35;;;23.50;52.90;;;;;;5031744;28;20414;-47
2022/09/18 02:04:59;;;;;;;0.70;0.30;;;23.50;52.90;;;;;;5034282;28;20029;-48
2022/09/18 02:07:36;;;;;;;1.00;0.45;;;23.50;52.90;;;;;;5051365;28;20042;-56
2022/09/18 02:10:03;;;;;;;0.82;0.40;;;23.50;52.90;;;;;;5051222;28;20051;-48
2022/09/18 02:12:33;;;;;;;0.45;0.40;;;23.50;52.90;;;;;;5050479;28;20037;-50
2022/09/18 02:15:03;;;;;;;1.50;0.63;;;23.50;52.90;;;;;;5051325;28;20393;-48
2022/09/18 02:17:34;;;;;;;1.25;0.52;;;23.50;52.90;;;;;;5047321;28;20033;-48
2022/09/18 02:20:09;;;;;;;0.85;0.40;;;23.50;52.90;;;;;;5051483;28;20021;-47
2022/09/18 02:22:36;;;;;;;1.42;0.60;;;23.50;52.90;;;;;;5050345;28;20075;-46
2022/09/18 02:25:05;;;;;;;0.80;0.40;;;23.50;52.90;;;;;;5050595;28;20031;-46
2022/09/18 02:27:33;;;;;;;0.73;0.40;;;23.50;52.80;;;;;;5050087;28;20456;-46
2022/09/18 02:30:01;;;;;;;0.70;0.43;;;23.50;52.80;;;;;;5048011;28;20402;-46
2022/09/18 02:32:27;;;;;;;0.95;0.60;;;23.60;52.90;;;;;;5028951;28;20387;-53
2022/09/18 02:34:52;;;;;;;1.77;0.60;;;23.50;52.80;;;;;;5042952;28;20033;-46
2022/09/18 02:37:24;;;;;;;1.35;0.40;;;23.50;52.80;;;;;;5051895;28;20029;-46
2022/09/18 02:40:08;;;;;;;;;;;23.50;52.80;;;;;;5053442;28;20017;-46
2022/09/18 02:42:51;;;;;;;1.05;0.57;;;23.50;52.80;;;;;;5053625;28;19995;-45
2022/09/18 02:45:41;;;;;;;2.63;0.57;;;23.50;52.80;;;;;;5053963;28;20532;-47
2022/09/18 02:48:46;;;;;;;1.83;0.50;;;23.50;52.80;;;;;;5048895;28;20474;-46
2022/09/18 02:51:17;;;;;;;0.57;0.43;;;23.50;52.80;;;;;;5054372;28;20363;-47
2022/09/18 02:53:54;;;;;;;5.07;1.42;;;23.50;52.80;;;;;;5053743;28;20056;-48
2022/09/18 02:56:31;;;;;;;1.35;0.60;;;23.50;52.80;;;;;;5054629;28;20033;-46
2022/09/18 02:59:07;;;;;;;1.25;0.70;;;23.50;52.70;;;;;;5054489;28;20037;-46
2022/09/18 03:01:33;;;;;;;1.75;0.40;;;23.50;52.70;;;;;;5052010;28;20124;-46
2022/09/18 03:04:04;;;;;;;1.15;0.40;;;23.50;52.70;;;;;;5051869;28;20055;-46
2022/09/18 03:06:29;;;;;;;0.82;0.50;;;23.50;52.80;;;;;;5052226;28;20024;-46
2022/09/18 03:08:55;;;;;;;0.77;0.45;;;23.50;52.80;;;;;;5052962;28;20033;-46
2022/09/18 03:11:21;;;;;;;1.48;0.73;;;23.50;52.80;;;;;;5053609;28;20048;-46
2022/09/18 03:13:46;;;;;;;1.20;0.47;;;23.50;52.80;;;;;;5052905;28;20597;-47
2022/09/18 03:16:12;;;;;;;1.67;0.50;;;23.50;52.80;;;;;;5054088;28;20033;-46
2022/09/18 03:18:37;;;;;;;3.42;0.55;;;23.50;52.70;;;;;;5034976;28;20028;-46
2022/09/18 03:21:03;;;;;;;0.80;0.40;;;23.50;52.70;;;;;;5050253;28;20032;-47
2022/09/18 03:23:29;;;;;;;1.02;0.47;;;23.50;52.80;;;;;;5051165;28;20036;-47
2022/09/18 03:25:55;;;;;;;0.90;0.40;;;23.50;52.80;;;;;;5053447;28;20033;-46
2022/09/18 03:28:20;;;;;;;1.95;0.63;;;23.50;52.70;;;;;;5053526;28;20078;-46
2022/09/18 03:30:46;;;;;;;1.63;0.50;;;23.50;52.80;;;;;;5053164;28;20033;-47
2022/09/18 03:33:12;;;;;;;1.92;0.60;;;23.40;52.70;;;;;;5053128;28;20040;-46
2022/09/18 03:35:38;;;;;;;1.25;0.40;;;23.50;52.70;;;;;;5052143;28;20041;-46
2022/09/18 03:38:04;;;;;;;1.83;0.50;;;23.50;52.80;;;;;;5053410;28;20488;-46
2022/09/18 03:40:29;;;;;;;0.40;0.38;;;23.40;52.70;;;;;;5052571;28;20033;-47
2022/09/18 03:42:55;;;;;;;1.17;0.90;;;23.50;52.70;;;;;;5053875;28;20025;-46
2022/09/18 03:45:21;;;;;;;0.40;0.40;;;23.50;52.70;;;;;;5053533;28;20029;-46
2022/09/18 03:47:47;;;;;;;0.50;0.25;;;23.40;52.70;;;;;;5052437;28;20867;-47
2022/09/18 03:50:13;;;;;;;0.93;0.40;;;23.50;52.70;;;;;;5053417;28;20029;-46
2022/09/18 03:52:39;;;;;;;0.93;0.30;;;23.40;52.70;;;;;;5041873;28;20041;-47
2022/09/18 03:55:05;;;;;;;0.73;0.40;;;23.50;52.70;;;;;;5033389;28;20030;-47
2022/09/18 03:57:31;;;;;;;1.17;0.60;;;23.40;52.70;;;;;;5032627;28;20026;-46
2022/09/18 03:59:56;;;;;;;2.25;0.47;;;23.40;52.60;;;;;;5032987;28;20022;-48
2022/09/18 04:02:22;;;;;;;1.45;0.45;;;23.50;52.70;;;;;;5032995;28;20471;-48
2022/09/18 04:04:47;;;;;;;0.55;0.40;;;23.40;52.70;;;;;;5035696;28;20586;-46
2022/09/18 04:07:13;;;;;;;1.33;0.60;;;23.40;52.70;;;;;;5053764;28;20032;-46
2022/09/18 04:09:39;;;;;;;1.17;0.55;;;23.40;52.70;;;;;;5037794;28;20042;-49
2022/09/18 04:12:05;;;;;;;0.95;0.50;;;23.40;52.70;;;;;;5052662;28;20115;-48
2022/09/18 04:14:30;;;;;;;0.95;0.38;;;23.50;52.80;;;;;;5051718;28;20063;-46
2022/09/18 04:16:56;;;;;;;1.33;0.70;;;23.40;52.70;;;;;;5051239;28;20036;-48
2022/09/18 04:19:22;;;;;;;0.70;0.30;;;23.40;52.70;;;;;;5052381;28;20449;-51
2022/09/18 04:21:47;;;;;;;1.08;0.45;;;23.40;52.70;;;;;;5051791;28;20800;-48
2022/09/18 04:24:13;;;;;;;0.60;0.38;;;23.40;52.70;;;;;;5052562;28;20040;-51
2022/09/18 04:26:38;;;;;;;1.20;0.43;;;23.40;52.70;;;;;;5051378;28;20033;-49
2022/09/18 04:29:04;;;;;;;2.88;1.52;;;23.40;52.70;;;;;;5052742;28;20040;-49
2022/09/18 04:31:29;;;;;;;0.40;0.28;;;23.40;52.70;;;;;;5039737;28;20052;-50
2022/09/18 04:33:55;;;;;;;0.70;0.40;;;23.40;53.30;;;;;;5050088;28;20063;-52
2022/09/18 04:36:20;;;;;;;1.42;0.38;;;23.40;52.70;;;;;;5052897;28;20035;-49
2022/09/18 04:38:46;;;;;;;0.80;0.40;;;23.40;52.70;;;;;;5046575;28;20509;-49
2022/09/18 04:41:12;;;;;;;0.30;0.20;;;23.40;52.70;;;;;;5051943;28;20033;-49
2022/09/18 04:43:37;;;;;;;0.65;0.40;;;23.40;52.70;;;;;;5051575;28;20477;-49
2022/09/18 04:46:03;;;;;;;0.80;0.40;;;23.40;52.70;;;;;;5052410;28;20082;-50
2022/09/18 04:48:29;;;;;;;2.05;0.57;;;23.40;52.70;;;;;;5050085;28;20405;-54
2022/09/18 04:50:54;;;;;;;0.50;0.40;;;23.40;52.80;;;;;;5050528;28;20426;-51
2022/09/18 04:53:20;;;;;;;0.57;0.30;;;23.40;52.80;;;;;;5050731;28;20763;-50
2022/09/18 04:55:47;;;;;;;0.20;0.20;;;23.40;52.70;;;;;;5045670;28;20025;-49
2022/09/18 04:58:15;;;;;;;1.65;0.47;;;23.40;52.70;;;;;;5050818;28;21252;-47
2022/09/18 05:00:41;;;;;;;0.40;0.35;;;23.40;52.70;;;;;;5023652;28;20032;-51
2022/09/18 05:03:07;;;;;;;0.68;0.40;;;23.40;52.80;;;;;;5050659;28;20037;-46
2022/09/18 05:05:33;;;;;;;0.88;0.38;;;23.40;52.70;;;;;;5049355;28;21414;-48
2022/09/18 05:07:59;;;;;;;0.32;0.20;;;23.40;52.70;;;;;;5047976;28;20096;-51
2022/09/18 05:10:26;;;;;;;0.63;0.40;;;23.40;52.70;;;;;;5048425;28;20052;-53
2022/09/18 05:12:52;;;;;;;0.88;0.50;;;23.40;52.70;;;;;;5048336;28;20039;-50
2022/09/18 05:15:18;;;;;;;1.48;0.40;;;23.40;52.70;;;;;;5049919;28;20021;-47
2022/09/18 05:17:44;;;;;;;0.85;0.30;;;23.40;52.70;;;;;;5049026;28;20021;-46
2022/09/18 05:20:10;;;;;;;1.42;0.55;;;23.40;52.70;;;;;;5050247;28;20021;-48
2022/09/18 05:22:36;;;;;;;0.45;0.35;;;23.40;52.80;;;;;;5048997;28;20035;-48
2022/09/18 05:25:02;;;;;;;0.50;0.38;;;23.40;52.70;;;;;;5049714;28;20108;-49
2022/09/18 05:27:28;;;;;;;1.08;0.35;;;23.40;52.70;;;;;;5049728;28;20072;-55
2022/09/18 05:29:54;;;;;;;1.27;0.40;;;23.40;52.70;;;;;;5049807;28;20034;-47
2022/09/18 05:32:19;;;;;;;0.50;0.30;;;23.40;52.70;;;;;;5047131;28;20466;-46
2022/09/18 05:34:48;;;;;;;0.47;0.30;;;23.40;52.70;;;;;;5046039;28;20056;-50
2022/09/18 05:37:13;;;;;;;2.47;0.30;;;23.40;52.70;;;;;;5050057;28;20029;-51
2022/09/18 05:39:39;;;;;;;1.17;0.40;;;23.40;52.70;;;;;;5047779;28;20493;-48
2022/09/18 05:42:04;;;;;;;0.55;0.30;;;23.40;52.70;;;;;;5050116;28;20108;-46
2022/09/18 05:44:30;;;;;;;0.40;0.35;;;23.40;52.70;;;;;;5049056;28;20025;-48
2022/09/18 05:46:56;;;;;;;0.55;0.40;;;23.40;52.70;;;;;;5050191;28;20052;-49
2022/09/18 05:49:21;;;;;;;0.90;0.52;;;23.40;52.70;;;;;;5050279;28;20428;-51
2022/09/18 05:51:47;;;;;;;0.65;0.40;;;23.40;52.70;;;;;;5046829;28;20071;-47
2022/09/18 05:54:13;;;;;;;0.98;0.40;;;23.40;52.70;;;;;;5050196;28;20116;-47
2022/09/18 05:56:39;;;;;;;1.38;0.32;;;23.40;52.70;;;;;;5049169;28;20029;-46
2022/09/18 05:59:05;;;;;;;1.70;0.52;;;23.40;52.70;;;;;;5050162;28;20028;-50
2022/09/18 06:01:30;;;;;;;0.60;0.40;;;23.40;52.70;;;;;;5047487;28;20079;-47
2022/09/18 06:03:56;;;;;;;1.65;0.65;;;23.40;52.80;;;;;;5049792;28;20021;-47
2022/09/18 06:06:22;;;;;;;1.27;0.40;;;23.40;52.70;;;;;;5049964;28;20108;-52
2022/09/18 06:08:47;;;;;;;0.73;0.40;;;23.40;52.70;;;;;;5046377;28;20032;-47
2022/09/18 06:11:13;;;;;;;1.30;0.60;;;23.30;52.70;;;;;;5049675;28;20105;-47
2022/09/18 06:13:38;;;;;;;0.52;0.40;;;23.40;52.70;;;;;;5049934;28;20028;-46
2022/09/18 06:16:04;;;;;;;0.77;0.57;;;23.40;52.70;;;;;;5035721;28;20025;-46
2022/09/18 06:18:30;;;;;;;2.70;0.40;;;23.40;52.70;;;;;;5052384;28;20055;-52
2022/09/18 06:20:57;;;;;;;0.28;0.22;;;23.40;52.80;;;;;;5052388;28;20386;-50
2022/09/18 06:23:24;;;;;;;0.63;0.40;;;23.40;52.70;;;;;;5052865;28;20190;-49
2022/09/18 06:26:00;;;;;;;1.23;0.57;;;23.40;52.70;;;;;;5052624;28;20029;-47
2022/09/18 06:28:26;;;;;;;1.75;0.47;;;23.40;52.80;;;;;;5033934;28;20472;-55
2022/09/18 06:30:52;;;;;;;1.30;0.47;;;23.40;52.80;;;;;;5048057;28;20120;-48
2022/09/18 06:33:18;;;;;;;1.27;0.50;;;23.40;52.80;;;;;;5051916;28;20029;-46
2022/09/18 06:35:47;;;;;;;2.50;0.70;;;23.30;52.80;;;;;;5052384;28;20032;-47
2022/09/18 06:38:13;;;;;;;0.90;0.40;;;23.40;52.90;;;;;;5052940;28;20032;-47
2022/09/18 06:40:39;;;;;;;0.90;0.70;;;23.40;52.90;;;;;;5041356;28;20084;-46
2022/09/18 06:43:04;;;;;;;1.08;0.52;;;23.30;52.90;;;;;;5053536;28;20047;-46
2022/09/18 06:45:31;;;;;;;0.57;0.32;;;23.40;52.90;;;;;;5047774;28;20030;-49
2022/09/18 06:48:03;;;;;;;3.22;0.50;;;23.40;52.90;;;;;;5047796;28;20036;-46
2022/09/18 06:50:29;;;;;;;1.45;0.50;;;23.40;52.80;;;;;;5051014;28;20417;-54
2022/09/18 06:53:03;;;;;;;0.45;0.30;;;23.40;52.70;;;;;;5053263;28;20052;-47
2022/09/18 06:55:30;;;;;;;1.13;0.40;;;23.50;52.70;;;;;;5048884;28;21416;-55
2022/09/18 06:57:57;;;;;;;0.65;0.40;;;23.60;52.70;;;;;;5041841;28;20100;-48
2022/09/18 07:00:23;;;;;;;0.65;0.47;;;23.60;52.50;;;;;;5046780;28;20470;-48
2022/09/18 07:02:59;;;;;;;0.60;0.30;;;23.60;52.40;;;;;;5051530;28;20033;-46
2022/09/18 07:05:27;;;;;;;1.00;0.40;;;23.60;52.40;;;;;;5051775;28;20083;-55
2022/09/18 07:07:53;;;;;;;0.30;0.20;;;23.60;52.30;;;;;;5053381;28;20079;-46
2022/09/18 07:10:19;;;;;;;1.13;0.47;;;23.70;52.50;;;;;;5038238;28;20049;-47
2022/09/18 07:12:47;;;;;;;0.90;0.30;;;23.70;52.30;;;;;;5012474;28;20050;-46
2022/09/18 07:15:15;;;;;;;1.08;0.50;;;23.80;52.50;;;;;;5013301;28;20030;-49
2022/09/18 07:17:41;;;;;;;0.68;0.38;;;23.80;52.40;;;;;;5012725;28;20080;-46
2022/09/18 07:20:07;;;;;;;1.75;0.32;;;23.80;52.70;;;;;;5013771;28;20030;-43
2022/09/18 07:22:33;;;;;;;0.55;0.47;;;23.90;52.80;;;;;;5031014;28;20049;-45
2022/09/18 07:24:58;;;;;;;0.68;0.40;;;23.80;53.10;;;;;;5032323;28;20029;-50
2022/09/18 07:27:24;;;;;;;2.08;0.45;;;23.90;53.00;;;;;;5024636;28;20483;-45
2022/09/18 07:29:49;;;;;;;2.83;0.60;;;23.90;53.20;;;;;;5032793;28;20029;-45
2022/09/18 07:32:15;;;;;;;1.38;0.47;;;23.90;53.50;;;;;;5018063;28;20045;-48
2022/09/18 07:34:40;;;;;;;1.77;0.47;;;23.90;53.60;;;;;;5032119;28;20025;-46
2022/09/18 07:37:06;;;;;;;2.78;0.50;;;23.90;53.70;;;;;;5031634;28;20064;-46
2022/09/18 07:39:32;;;;;;;1.50;0.80;;;23.90;54.10;;;;;;5037606;28;20025;-46
2022/09/18 07:41:58;;;;;;;1.65;0.70;;;23.90;54.30;;;;;;5024293;28;20463;-46
2022/09/18 07:44:25;;;;;;;1.73;0.80;;;23.90;54.50;;;;;;5032791;28;20025;-44
2022/09/18 07:46:54;;;;;;;2.08;1.27;;;23.90;54.80;;;;;;5016367;28;20044;-46
2022/09/18 07:49:19;;;;;;;2.60;0.85;;;23.90;55.60;;;;;;5012670;28;20050;-47
2022/09/18 07:51:45;;;;;;;3.78;0.95;;;24.00;56.00;;;;;;5012221;28;20057;-47
2022/09/18 07:54:11;;;;;;;2.03;1.02;;;24.00;55.80;;;;;;5012594;28;20120;-50
2022/09/18 07:56:36;;;;;;;9.40;1.30;;;24.00;55.90;;;;;;5020204;28;20037;-46
2022/09/18 07:59:02;;;;;;;5.13;0.60;;;23.90;55.80;;;;;;5018337;28;20030;-46
2022/09/18 08:01:28;;;;;;;2.25;0.70;;;24.00;56.10;;;;;;5033583;28;20047;-55
2022/09/18 08:03:54;;;;;;;0.85;0.40;;;24.00;56.20;;;;;;5039422;28;20022;-48
2022/09/18 08:06:19;;;;;;;2.05;0.77;;;23.90;56.10;;;;;;5023297;28;20101;-47
2022/09/18 08:08:45;;;;;;;1.02;0.60;;;24.00;56.10;;;;;;5035314;28;20081;-46
2022/09/18 08:11:11;;;;;;;2.03;0.52;;;24.00;56.00;;;;;;5037087;28;20522;-53
2022/09/18 08:13:36;;;;;;;1.15;0.60;;;24.00;55.90;;;;;;5030760;28;20034;-45
2022/09/18 08:16:02;;;;;;;0.50;0.40;;;24.00;55.90;;;;;;5022851;28;20038;-48
2022/09/18 08:18:28;;;;;;;2.13;1.00;;;24.00;55.90;;;;;;5011653;28;20041;-54
2022/09/18 08:20:56;;;;;;;1.20;0.30;;;24.00;55.70;;;;;;5014995;28;20084;-47
2022/09/18 08:23:22;;;;;;;1.15;0.70;;;24.00;55.70;;;;;;5015852;28;20390;-47
2022/09/18 08:25:48;;;;;;;0.52;0.30;;;24.00;55.70;;;;;;5027695;28;20109;-45
2022/09/18 08:28:13;;;;;;;1.38;0.52;;;24.00;55.60;;;;;;5029605;28;20121;-47
2022/09/18 08:30:39;;;;;;;1.90;0.40;;;24.00;55.50;;;;;;5020460;28;20025;-49
2022/09/18 08:33:07;;;;;;;0.50;0.40;;;24.00;55.40;;;;;;5030418;28;20401;-45
2022/09/18 08:35:33;;;;;;;1.48;0.40;;;24.10;55.50;;;;;;5024659;28;20056;-47
2022/09/18 08:37:59;;;;;;;2.85;0.60;;;24.10;55.40;;;;;;5012284;28;20065;-46
2022/09/18 08:41:03;;;;;;;1.35;0.50;;;24.10;55.50;;;;;;5022149;28;20026;-47
2022/09/18 08:43:52;;;;;;;1.75;0.40;;;24.10;55.40;;;;;;5006654;28;21495;-49
2022/09/18 08:46:31;;;;;;;0.85;0.52;;;24.10;55.30;;;;;;5010067;28;20037;-50
2022/09/18 08:49:17;;;;;;;2.00;0.50;;;24.10;55.20;;;;;;5026452;28;20121;-47
2022/09/18 08:52:13;;;;;;;3.13;0.43;;;24.10;55.30;;;;;;5018981;28;20382;-46
2022/09/18 08:54:45;;;;;;;0.90;0.60;;;24.20;55.30;;;;;;5041797;28;20478;-47
2022/09/18 08:57:22;;;;;;;0.57;0.30;;;24.20;55.30;;;;;;5046452;28;20086;-54
2022/09/18 08:59:53;;;;;;;1.48;0.50;;;24.30;55.20;;;;;;5027004;28;20613;-46
2022/09/18 09:02:42;;;;;;;1.75;0.52;;;24.30;55.10;;;;;;5029864;28;20475;-45
2022/09/18 09:05:17;;;;;;;1.98;0.43;;;24.30;55.10;;;;;;5029370;28;20029;-46
2022/09/18 09:08:04;;;;;;;2.55;0.60;;;24.30;55.20;;;;;;5029711;28;20495;-46
2022/09/18 09:10:29;;;;;;;1.80;0.77;;;24.30;55.30;;;;;;5042437;28;20045;-49
2022/09/18 09:12:55;;;;;;;7.05;0.30;;;24.20;55.50;;;;;;5063882;28;20063;-46
2022/09/18 09:15:46;;;;;;;1.67;0.98;;;24.20;55.40;;;;;;5061960;28;20025;-49
2022/09/18 09:18:52;;;;;;;0.55;0.40;;;24.20;55.40;;;;;;5072319;28;20473;-47
2022/09/18 09:21:27;;;;;;;2.13;0.40;;;24.20;55.40;;;;;;5048864;28;20583;-46
2022/09/18 09:24:24;;;;;;;2.35;0.50;;;24.20;55.50;;;;;;5064708;28;20021;-46
2022/09/18 09:26:51;;;;;;;1.25;0.60;;;24.20;55.60;;;;;;5063652;28;20013;-47
2022/09/18 09:29:23;;;;;;;0.80;0.50;;;24.10;55.60;;;;;;5064335;28;20035;-46
2022/09/18 09:31:56;;;;;;;2.65;0.60;;;24.10;55.60;;;;;;5063056;28;20139;-46
2022/09/18 09:34:30;;;;;;;2.17;0.40;;;24.10;55.60;;;;;;5062148;28;20364;-46
2022/09/18 09:37:01;;;;;;;2.85;0.70;;;24.10;55.70;;;;;;5065908;28;20367;-46
2022/09/18 09:39:33;;;;;;;1.98;0.70;;;24.10;55.90;;;;;;5068867;28;20024;-53
2022/09/18 09:42:11;;;;;;;1.95;0.50;;;24.10;55.80;;;;;;5064610;28;20033;-48
2022/09/18 09:45:00;;;;;;;0.90;0.38;;;24.00;55.70;;;;;;5061308;28;20048;-49
2022/09/18 09:47:34;;;;;;;2.40;0.65;;;24.00;55.90;;;;;;5067790;28;20064;-53
2022/09/18 09:50:05;;;;;;;5.47;1.23;;;24.10;56.00;;;;;;5059487;28;20029;-47
2022/09/18 09:52:31;;;;;;;1.70;0.57;;;24.10;55.90;;;;;;5060511;28;20056;-46
2022/09/18 09:55:12;;;;;;;4.53;1.67;;;24.10;55.80;;;;;;5070258;28;20131;-45
2022/09/18 09:58:06;;;;;;;2.23;1.23;;;24.20;56.20;;;;;;5063023;28;20032;-45
2022/09/18 10:00:47;;;;;;;3.40;1.42;;;24.20;56.20;;;;;;5071897;28;20034;-46
2022/09/18 10:03:23;;;;;;;2.25;1.30;;;24.10;56.00;;;;;;5056683;28;20082;-49
2022/09/18 10:06:09;;;;;;;2.78;1.42;;;24.10;56.20;;;;;;5065610;28;20171;-46
2022/09/18 10:08:41;;;;;;;6.88;2.17;;;24.10;56.50;;;;;;5066651;28;20030;-47
2022/09/18 10:11:10;;;;;;;3.15;1.70;;;24.00;56.70;;;;;;5071817;28;20474;-45
2022/09/18 10:14:09;;;;;;;4.57;1.90;;;24.00;56.70;;;;;;5066580;28;20485;-46
2022/09/18 10:16:44;;;;;;;5.05;1.90;;;24.10;56.80;;;;;;5059347;28;20055;-46
2022/09/18 10:19:17;;;;;;;3.30;1.40;;;24.00;56.60;;;;;;5067392;28;20025;-45
2022/09/18 10:21:44;;;;;;;3.35;1.33;;;24.10;56.70;;;;;;5071138;28;20033;-45
2022/09/18 10:24:19;;;;;;;3.22;1.55;;;24.10;56.70;;;;;;5065580;28;20474;-46
2022/09/18 10:26:58;;;;;;;2.08;1.10;;;24.00;56.70;;;;;;5070668;28;20545;-48
2022/09/18 10:29:27;;;;;;;2.47;1.20;;;24.00;56.70;;;;;;5069029;28;20050;-49
2022/09/18 10:31:58;;;;;;;1.73;1.10;;;24.00;56.70;;;;;;5068215;28;20032;-48
2022/09/18 10:34:47;;;;;;;4.53;1.27;;;24.00;56.70;;;;;;5067483;28;20466;-47
2022/09/18 10:37:28;;;;;;;2.95;1.55;;;24.00;56.60;;;;;;5063354;28;20085;-46
2022/09/18 10:39:58;;;;;;;2.60;1.23;;;24.00;56.50;;;;;;5067374;28;20048;-45
2022/09/18 10:42:35;;;;;;;2.80;1.08;;;24.10;56.70;;;;;;5059950;28;20025;-46
2022/09/18 10:45:05;;;;;;;3.00;1.35;;;24.20;56.70;;;;;;5067090;28;20499;-48
2022/09/18 10:47:34;;;;;;;3.78;1.20;;;24.20;57.00;;;;;;5064627;28;20469;-46
2022/09/18 10:50:05;;;;;;;5.43;1.67;;;24.20;56.60;;;;;;5056557;28;20024;-46
2022/09/18 10:52:34;;;;;;;2.45;0.90;;;24.20;56.60;;;;;;5051880;28;20175;-48
2022/09/18 10:55:06;;;;;;;3.15;0.90;;;24.30;56.60;;;;;;5053036;28;20091;-45
2022/09/18 10:57:33;;;;;;;;;;;24.20;56.90;;;;;;5052253;28;20021;-45
2022/09/18 10:59:59;;;;;;;3.58;1.17;;;24.20;57.00;;;;;;5051501;28;19932;-46
2022/09/18 11:02:28;;;;;;;2.35;1.20;;;24.20;57.60;;;;;;5053995;28;20033;-47
2022/09/18 11:04:54;;;;;;;3.13;1.27;;;24.20;57.30;;;;;;5043401;28;20040;-46
2022/09/18 11:07:22;;;;;;;3.65;1.02;;;24.20;57.20;;;;;;5048826;28;20090;-45
2022/09/18 11:09:49;;;;;;;2.30;0.90;;;24.20;57.50;;;;;;5044275;28;20053;-46
2022/09/18 11:12:24;;;;;;;1.13;0.90;;;24.20;57.70;;;;;;5046082;28;20451;-48
2022/09/18 11:14:59;;;;;;;4.57;0.80;;;24.20;57.60;;;;;;5048619;28;20091;-50
2022/09/18 11:17:29;;;;;;;2.80;1.27;;;24.30;57.10;;;;;;5051306;28;20108;-52
2022/09/18 11:19:57;;;;;;;5.88;1.00;;;24.30;57.40;;;;;;5047408;28;20104;-47
2022/09/18 11:22:41;;;;;;;2.63;1.30;;;24.40;56.50;;;;;;5052317;28;20056;-47
2022/09/18 11:25:13;;;;;;;2.55;0.80;;;24.40;56.50;;;;;;5044167;28;20064;-50
2022/09/18 11:27:52;;;;;;;4.63;1.15;;;24.50;56.20;;;;;;5032482;28;20406;-48
2022/09/18 11:30:26;;;;;;;3.58;0.82;;;24.50;56.00;;;;;;5033184;28;20048;-49
2022/09/18 11:33:11;;;;;;;1.45;0.90;;;24.50;56.00;;;;;;5034159;28;20041;-50
2022/09/18 11:35:44;;;;;;;2.08;0.77;;;24.60;56.50;;;;;;5030296;28;20041;-48
2022/09/18 11:38:14;;;;;;;1.30;0.90;;;24.60;55.70;;;;;;5032591;28;20080;-53
2022/09/18 11:40:48;;;;;;;4.43;1.13;;;24.60;55.50;;;;;;5050263;28;20045;-49
2022/09/18 11:43:22;;;;;;;2.35;1.05;;;24.70;55.40;;;;;;5072465;28;20381;-49
2022/09/18 11:46:31;;;;;;;3.20;0.80;;;24.60;55.40;;;;;;5056248;28;20068;-49
2022/09/18 11:49:08;;;;;;;2.67;0.85;;;24.60;55.30;;;;;;5041380;28;20040;-50
2022/09/18 11:51:56;;;;;;;2.33;0.60;;;24.60;55.20;;;;;;5050418;28;20045;-48
2022/09/18 11:54:27;;;;;;;1.65;0.50;;;24.60;55.10;;;;;;5034624;28;20154;-47
2022/09/18 11:56:58;;;;;;;1.38;0.60;;;24.70;55.10;;;;;;5041030;28;20029;-45
2022/09/18 11:59:48;;;;;;;2.63;0.80;;;24.60;55.00;;;;;;5049944;28;20366;-51
2022/09/18 12:02:17;;;;;;;1.92;1.05;;;24.70;55.00;;;;;;5035327;28;20037;-45
2022/09/18 12:05:08;;;;;;;4.10;0.93;;;24.70;54.90;;;;;;5046453;28;20534;-47
2022/09/18 12:08:12;;;;;;;1.55;0.70;;;24.70;54.80;;;;;;5050682;28;20074;-48
2022/09/18 12:11:12;;;;;;;3.03;0.60;;;24.70;54.80;;;;;;5037638;28;20057;-46
2022/09/18 12:14:00;;;;;;;2.58;0.90;;;24.70;54.70;;;;;;5031379;28;20037;-50
2022/09/18 12:16:44;;;;;;;2.97;0.93;;;24.70;54.60;;;;;;5031087;28;20077;-57
2022/09/18 12:19:18;;;;;;;3.90;0.85;;;24.70;54.50;;;;;;5031018;28;20087;-53
2022/09/18 12:21:48;;;;;;;2.30;0.77;;;24.70;54.40;;;;;;5047853;28;20048;-48
2022/09/18 12:24:16;;;;;;;1.70;0.77;;;24.80;54.40;;;;;;5050186;28;20033;-49
2022/09/18 12:27:12;;;;;;;2.90;1.63;;;24.70;54.30;;;;;;5031024;28;20041;-49
2022/09/18 12:29:58;;;;;;;1.33;0.50;;;24.80;54.40;;;;;;5010380;28;20038;-46
2022/09/18 12:33:01;;;;;;;3.03;0.98;;;24.70;54.30;;;;;;5031718;28;20472;-48
2022/09/18 12:36:06;;;;;;;1.85;1.13;;;24.70;54.30;;;;;;5038546;28;20055;-56
2022/09/18 12:38:46;;;;;;;1.52;0.60;;;24.80;54.30;;;;;;5029077;28;20045;-44
2022/09/18 12:41:34;;;;;;;2.33;0.55;;;24.80;54.30;;;;;;5031296;28;20034;-46
2022/09/18 12:44:24;;;;;;;1.60;0.60;;;24.80;54.40;;;;;;5031424;28;20379;-45
2022/09/18 12:47:09;;;;;;;1.58;0.57;;;24.80;54.40;;;;;;5030654;28;20034;-45
2022/09/18 12:49:57;;;;;;;1.50;0.63;;;24.80;54.40;;;;;;5029743;28;20017;-45
2022/09/18 12:52:41;;;;;;;1.63;0.50;;;24.90;54.40;;;;;;5037454;28;20045;-48
2022/09/18 12:55:15;;;;;;;1.55;0.57;;;24.90;54.40;;;;;;5035115;28;20233;-47
2022/09/18 12:57:58;;;;;;;1.90;0.80;;;24.90;54.20;;;;;;5047257;28;20453;-44
2022/09/18 13:00:24;;;;;;;4.72;0.77;;;24.90;54.30;;;;;;5046618;28;20041;-45
2022/09/18 13:03:18;;;;;;;1.83;0.80;;;24.90;54.10;;;;;;5050106;28;20352;-44
2022/09/18 13:05:49;;;;;;;1.00;0.57;;;24.90;54.00;;;;;;5048758;28;20409;-45
2022/09/18 13:08:27;;;;;;;1.33;0.70;;;24.90;54.20;;;;;;5040334;28;20025;-46
2022/09/18 13:11:02;;;;;;;3.15;1.05;;;24.90;54.30;;;;;;5030396;28;20050;-46
2022/09/18 13:13:47;;;;;;;1.25;0.50;;;24.90;54.20;;;;;;5030597;28;20045;-54